createdAt,value
2022-09-28T00:02:24.000Z,8.33
2022-09-28T00:07:24.000Z,8.24
2022-09-28T00:12:24.000Z,9
2022-09-28T00:17:24.000Z,8.06
2022-09-28T00:22:24.000Z,8.26
2022-09-28T00:27:25.000Z,7.79
2022-09-28T00:32:24.000Z,7.5
2022-09-28T00:37:24.000Z,7.54
2022-09-28T00:42:25.000Z,7.16
2022-09-28T00:47:25.000Z,7.18
2022-09-28T00:52:25.000Z,6.96
2022-09-28T00:57:24.000Z,6.58
2022-09-28T01:02:25.000Z,6.36
2022-09-28T01:07:24.000Z,6.43
2022-09-28T01:12:24.000Z,5.92
2022-09-28T01:22:24.000Z,6.23
2022-09-28T01:27:24.000Z,6.04
2022-09-28T01:32:25.000Z,5.87
2022-09-28T01:37:24.000Z,6.01
2022-09-28T01:42:24.000Z,5.94
2022-09-28T01:47:24.000Z,5.83
2022-09-28T01:52:24.000Z,5.72
2022-09-28T01:57:24.000Z,5.65
2022-09-28T02:02:24.000Z,5.57
2022-09-28T02:07:24.000Z,5.38
2022-09-28T02:12:24.000Z,5.31
2022-09-28T02:17:24.000Z,5.63
2022-09-28T02:22:24.000Z,5.44
2022-09-28T02:27:24.000Z,5.4
2022-09-28T02:32:24.000Z,5.45
2022-09-28T02:37:24.000Z,5.38
2022-09-28T02:42:25.000Z,5.4
2022-09-28T02:47:24.000Z,5.59
2022-09-28T02:52:25.000Z,5.2
2022-09-28T02:57:24.000Z,5.12
2022-09-28T03:02:24.000Z,5.13
2022-09-28T03:07:24.000Z,5.14
2022-09-28T03:12:24.000Z,4.92
2022-09-28T03:17:24.000Z,5.18
2022-09-28T03:22:24.000Z,5.34
2022-09-28T03:27:24.000Z,5.7
2022-09-28T03:32:25.000Z,6.18
2022-09-28T03:37:24.000Z,5.41
2022-09-28T03:42:25.000Z,5.43
2022-09-28T03:47:25.000Z,4.96
2022-09-28T03:52:24.000Z,5.32
2022-09-28T03:57:25.000Z,5.12
2022-09-28T04:02:24.000Z,5.1
2022-09-28T04:12:25.000Z,5.3
2022-09-28T04:17:24.000Z,5.03
2022-09-28T04:22:24.000Z,5.22
2022-09-28T04:27:24.000Z,5.17
2022-09-28T04:32:24.000Z,5
2022-09-28T04:37:24.000Z,6.5
2022-09-28T04:42:24.000Z,5.12
2022-09-28T04:47:24.000Z,5.23
2022-09-28T04:52:24.000Z,5.18
2022-09-28T04:57:24.000Z,5.24
2022-09-28T05:02:24.000Z,5.33
2022-09-28T05:07:25.000Z,5.21
2022-09-28T05:12:24.000Z,5.34
2022-09-28T05:17:25.000Z,5.27
2022-09-28T05:22:24.000Z,5.69
2022-09-28T05:27:24.000Z,5.3
2022-09-28T05:32:24.000Z,5.32
2022-09-28T05:37:25.000Z,5.4
2022-09-28T05:42:24.000Z,5.72
2022-09-28T05:47:24.000Z,5.29
2022-09-28T05:52:25.000Z,5.12
2022-09-28T05:57:24.000Z,5.03
2022-09-28T06:02:25.000Z,5.22
2022-09-28T06:07:25.000Z,9.27
2022-09-28T06:12:24.000Z,5.18
2022-09-28T06:17:25.000Z,4.98
2022-09-28T06:22:24.000Z,5.52
2022-09-28T06:27:24.000Z,5.14
2022-09-28T06:32:24.000Z,5.32
2022-09-28T06:37:24.000Z,5.4
2022-09-28T06:42:25.000Z,5.59
2022-09-28T06:47:25.000Z,5.23
2022-09-28T06:52:24.000Z,5.79
2022-09-28T06:57:24.000Z,5.32
2022-09-28T07:02:25.000Z,5.02
2022-09-28T07:07:24.000Z,5.71
2022-09-28T07:12:24.000Z,5.67
2022-09-28T07:17:25.000Z,4.81
2022-09-28T07:22:24.000Z,5.32
2022-09-28T07:27:24.000Z,4.75
2022-09-28T07:32:25.000Z,4.59
2022-09-28T07:37:24.000Z,5.01
2022-09-28T07:42:25.000Z,4.39
2022-09-28T07:47:24.000Z,4.35
2022-09-28T07:52:24.000Z,4.55
2022-09-28T07:57:25.000Z,4.75
2022-09-28T08:02:24.000Z,5
2022-09-28T08:07:25.000Z,8.02
2022-09-28T08:12:24.000Z,5.04
2022-09-28T08:17:25.000Z,4.62
2022-09-28T08:22:24.000Z,4.51
2022-09-28T08:27:24.000Z,4.98
2022-09-28T08:32:25.000Z,6.52
2022-09-28T08:37:24.000Z,8.9
2022-09-28T08:42:24.000Z,5.2
2022-09-28T08:47:24.000Z,5.25
2022-09-28T08:52:25.000Z,5.37
2022-09-28T08:57:25.000Z,4.32
2022-09-28T09:02:25.000Z,4.56
2022-09-28T09:07:24.000Z,4.73
2022-09-28T09:12:24.000Z,5.81
2022-09-28T09:17:25.000Z,4.98
2022-09-28T09:27:24.000Z,4.27
2022-09-28T09:32:24.000Z,4.54
2022-09-28T09:37:24.000Z,4.39
2022-09-28T09:42:25.000Z,4.57
2022-09-28T09:47:25.000Z,4.29
2022-09-28T09:52:25.000Z,4.69
2022-09-28T09:57:25.000Z,4.98
2022-09-28T10:02:24.000Z,5.02
2022-09-28T10:07:25.000Z,8.33
2022-09-28T10:12:25.000Z,5.19
2022-09-28T10:17:24.000Z,5.13
2022-09-28T10:22:24.000Z,5.62
2022-09-28T10:27:24.000Z,5.11
2022-09-28T10:32:24.000Z,5.41
2022-09-28T10:37:25.000Z,5.61
2022-09-28T10:42:24.000Z,5.72
2022-09-28T10:47:24.000Z,8.62
2022-09-28T10:52:24.000Z,6.32
2022-09-28T10:57:25.000Z,6.48
2022-09-28T11:02:24.000Z,6.33
2022-09-28T11:12:24.000Z,6.78
2022-09-28T11:17:24.000Z,7.5
2022-09-28T11:22:25.000Z,7.25
2022-09-28T11:27:24.000Z,7.31
2022-09-28T11:32:25.000Z,6.99
2022-09-28T11:37:24.000Z,7.28
2022-09-28T11:42:24.000Z,7.27
2022-09-28T11:47:25.000Z,7.03
2022-09-28T11:52:25.000Z,7.19
2022-09-28T11:57:25.000Z,7.08
2022-09-28T12:02:25.000Z,7.4
2022-09-28T12:07:25.000Z,6.96
2022-09-28T12:12:25.000Z,7.18
2022-09-28T12:17:24.000Z,7.44
2022-09-28T12:22:24.000Z,7.27
2022-09-28T12:27:25.000Z,6.83
2022-09-28T12:32:24.000Z,6.94
2022-09-28T12:37:25.000Z,7.09
2022-09-28T12:42:24.000Z,7.02
2022-09-28T12:47:25.000Z,7.11
2022-09-28T12:52:24.000Z,8.01
2022-09-28T12:57:25.000Z,7.94
2022-09-28T13:02:25.000Z,8.15
2022-09-28T13:07:25.000Z,8.46
2022-09-28T13:12:25.000Z,8.85
2022-09-28T13:17:24.000Z,8.56
2022-09-28T13:22:25.000Z,37.35
2022-09-28T13:27:24.000Z,8.79
2022-09-28T13:32:24.000Z,8.5
2022-09-28T13:37:24.000Z,8.05
2022-09-28T13:42:25.000Z,8.65
2022-09-28T13:47:24.000Z,8.95
2022-09-28T13:52:24.000Z,8.81
2022-09-28T13:57:24.000Z,10.11
2022-09-28T14:02:24.000Z,8.33
2022-09-28T14:07:25.000Z,8.5
2022-09-28T14:12:24.000Z,8.42
2022-09-28T14:17:24.000Z,7.48
2022-09-28T14:22:25.000Z,7.62
2022-09-28T14:27:24.000Z,10.3
2022-09-28T14:32:24.000Z,8.35
2022-09-28T14:37:24.000Z,8.62
2022-09-28T14:42:24.000Z,8.76
2022-09-28T14:47:24.000Z,8.34
2022-09-28T14:52:24.000Z,7.98
2022-09-28T14:57:24.000Z,8.07
2022-09-28T15:02:24.000Z,8.43
2022-09-28T15:07:25.000Z,8.39
2022-09-28T15:12:24.000Z,8.39
2022-09-28T15:17:24.000Z,9.15
2022-09-28T15:22:25.000Z,8.55
2022-09-28T15:27:24.000Z,9.41
2022-09-28T15:32:24.000Z,9.88
2022-09-28T15:37:25.000Z,11.99
2022-09-28T15:42:24.000Z,12.56
2022-09-28T15:47:25.000Z,12.49
2022-09-28T15:52:25.000Z,12.1
2022-09-28T15:57:24.000Z,11.82
2022-09-28T16:02:24.000Z,12.34
2022-09-28T16:07:24.000Z,12.3
2022-09-28T16:12:25.000Z,12.25
2022-09-28T16:17:24.000Z,12.86
2022-09-28T16:22:24.000Z,13.09
2022-09-28T16:27:24.000Z,12.54
2022-09-28T16:32:25.000Z,12.66
2022-09-28T16:37:24.000Z,11.5
2022-09-28T16:47:24.000Z,11.64
2022-09-28T16:52:25.000Z,11.19
2022-09-28T16:57:24.000Z,11.78
2022-09-28T17:02:25.000Z,12.09
2022-09-28T17:07:24.000Z,12.42
2022-09-28T17:12:25.000Z,12.14
2022-09-28T17:17:24.000Z,12.69
2022-09-28T17:22:25.000Z,13.04
2022-09-28T17:27:25.000Z,18.13
2022-09-28T17:32:24.000Z,18.78
2022-09-28T17:37:24.000Z,18.09
2022-09-28T17:42:24.000Z,17.27
2022-09-28T17:47:24.000Z,17.5
2022-09-28T17:52:25.000Z,17.17
2022-09-28T17:57:24.000Z,17.95
2022-09-28T18:02:24.000Z,15.98
2022-09-28T18:07:25.000Z,16.3
2022-09-28T18:12:24.000Z,12.94
2022-09-28T18:17:24.000Z,11.08
2022-09-28T18:22:24.000Z,9.5
2022-09-28T18:27:25.000Z,10.29
2022-09-28T18:32:24.000Z,11.01
2022-09-28T18:37:24.000Z,10.73
2022-09-28T18:42:24.000Z,9.9
2022-09-28T18:47:25.000Z,9.47
2022-09-28T18:52:25.000Z,9.29
2022-09-28T18:57:24.000Z,9.63
2022-09-28T19:02:24.000Z,9.67
2022-09-28T19:07:25.000Z,10.1
2022-09-28T19:12:24.000Z,9.76
2022-09-28T19:17:24.000Z,10.26
2022-09-28T19:22:24.000Z,10.04
2022-09-28T19:27:25.000Z,9.95
2022-09-28T19:32:25.000Z,9.69
2022-09-28T19:37:24.000Z,11.3
2022-09-28T19:42:24.000Z,10.54
2022-09-28T19:47:24.000Z,10.78
2022-09-28T19:52:25.000Z,10.99
2022-09-28T19:57:24.000Z,10.22
2022-09-28T20:02:25.000Z,10.03
2022-09-28T20:07:24.000Z,10.12
2022-09-28T20:12:24.000Z,10.12
2022-09-28T20:17:24.000Z,10.11
2022-09-28T20:22:24.000Z,10.35
2022-09-28T20:27:25.000Z,10.43
2022-09-28T20:32:25.000Z,11.08
2022-09-28T20:37:24.000Z,11.35
2022-09-28T20:42:25.000Z,11.18
2022-09-28T20:47:24.000Z,11.01
2022-09-28T20:52:24.000Z,12.86
2022-09-28T20:57:25.000Z,12.67
2022-09-28T21:02:24.000Z,13.2
2022-09-28T21:07:24.000Z,24
2022-09-28T21:12:24.000Z,30.06
2022-09-28T21:17:24.000Z,30.79
2022-09-28T21:22:25.000Z,29.18
2022-09-28T21:27:24.000Z,29.79
2022-09-28T21:32:25.000Z,24.94
2022-09-28T21:37:25.000Z,22.12
2022-09-28T21:47:25.000Z,24.09
2022-09-28T21:52:25.000Z,21.32
2022-09-28T21:57:24.000Z,18.35
2022-09-28T22:02:24.000Z,17.39
2022-09-28T22:07:24.000Z,16.54
2022-09-28T22:12:24.000Z,16.06
2022-09-28T22:17:24.000Z,15.06
2022-09-28T22:22:24.000Z,14
2022-09-28T22:27:24.000Z,13.51
2022-09-28T22:32:25.000Z,14.25
2022-09-28T22:37:25.000Z,13.81
2022-09-28T22:42:24.000Z,14.15
2022-09-28T22:47:24.000Z,14.03
2022-09-28T22:52:24.000Z,13.74
2022-09-28T22:57:24.000Z,13.58
2022-09-28T23:02:24.000Z,12.36
2022-09-28T23:07:24.000Z,12.97
2022-09-28T23:12:25.000Z,12.31
2022-09-28T23:17:25.000Z,12.36
2022-09-28T23:22:24.000Z,12.43
2022-09-28T23:27:25.000Z,12.55
2022-09-28T23:32:25.000Z,12.21
2022-09-28T23:37:25.000Z,12.01
2022-09-28T23:42:24.000Z,11.16
2022-09-28T23:47:25.000Z,11.67
2022-09-28T23:52:25.000Z,11.58
2022-09-28T23:57:24.000Z,11.22
